MSC Poh Lin — H8FC — position and weather

sailwx.info

Track history (hours):
 
Tides and Currents Weather Stations Pressure Air Temp Water Temp Dewpoint Dewpoint Depression Visibility Wind Speed Wind Dir Waves Ship Positions

MSC Poh Lin

Last reported at 2016-Apr-30 23:31 UTC. Time now 2016-May-01 00:26 UTC.
Position N 39°58' E 013°53'.

Length 294 m; draft 9.6 m.

Type: Ship (hazmat cat A). MMSI: 357405000.

Date/timePositionNaut miles runAvg speedWind from/ knotsBaromVisibWave heightAir tempDewpointWater temp
2016-Apr-30 23:31N 39°58' E 013°53'102 7.1
2016-Apr-30 09:08N 38°47' E 015°28'5 7.6
2016-Apr-30 08:29N 38°44' E 015°32'9 7.9
2016-Apr-30 07:24N 38°38' E 015°40'7 7.7
2016-Apr-30 06:33N 38°33' E 015°46'7 7.3
2016-Apr-30 05:33N 38°28' E 015°52'2 1.6
2016-Apr-30 04:33N 38°27' E 015°54'0 0.0
2016-Apr-30 03:33N 38°27' E 015°54'0 0.0
2016-Apr-30 02:33N 38°27' E 015°54'0 0.0
2016-Apr-30 01:34N 38°27' E 015°54'0 0.0
2016-Apr-30 00:33N 38°27' E 015°54'0 0.0
2016-Apr-29 23:33N 38°27' E 015°54'0 0.0
2016-Apr-29 22:31N 38°27' E 015°54'0 0.0
2016-Apr-29 21:33N 38°27' E 015°54'0 0.0
2016-Apr-29 20:31N 38°27' E 015°54'0 0.0
2016-Apr-29 19:28N 38°27' E 015°54'0 0.0
2016-Apr-29 18:31N 38°27' E 015°54'0 0.0
2016-Apr-29 17:31N 38°27' E 015°54'0 0.0
2016-Apr-29 16:31N 38°27' E 015°54'0 0.0
2016-Apr-29 15:31N 38°27' E 015°54'0 0.0
2016-Apr-29 14:31N 38°27' E 015°54'0 0.0
2016-Apr-29 13:31N 38°27' E 015°54'0 0.0
2016-Apr-29 12:19N 38°27' E 015°54'0 0.0
2016-Apr-29 11:25N 38°27' E 015°54'0 0.0
2016-Apr-29 10:28N 38°27' E 015°54'0 0.0
2016-Apr-29 09:28N 38°27' E 015°54'0 0.0
2016-Apr-29 08:33N 38°27' E 015°54'0 0.0
2016-Apr-29 07:27N 38°27' E 015°54'0 0.0
2016-Apr-29 06:33N 38°27' E 015°54'0 0.0
2016-Apr-29 05:33N 38°27' E 015°54'0 0.0
2016-Apr-29 04:33N 38°27' E 015°54'1 1.1
2016-Apr-29 03:33N 38°27' E 015°53'6 5.6
2016-Apr-29 02:33N 38°26' E 015°46'1111.3
2016-Apr-29 01:33N 38°24' E 015°32'1312.6
2016-Apr-29 00:33N 38°21' E 015°16'1414.1
2016-Apr-28 23:33N 38°19' E 014°58'1514.3
2016-Apr-28 22:31N 38°20' E 014°40'1614.3
2016-Apr-28 21:24N 38°21' E 014°19'1414.2
2016-Apr-28 20:26N 38°22' E 014°02'1214.0
2016-Apr-28 19:33N 38°23' E 013°46'1514.8
2016-Apr-28 18:33N 38°24' E 013°27'1615.9
2016-Apr-28 17:33N 38°25' E 013°07'1616.0
2016-Apr-28 16:33N 38°22' E 012°47'1616.0
2016-Apr-28 15:33N 38°19' E 012°27'1816.5
2016-Apr-28 14:29N 38°17' E 012°04'13616.8
2016-Apr-28 06:25N 37°54' E 009°14'1416.4
2016-Apr-28 05:33N 37°52' E 008°57'1716.7
2016-Apr-28 04:33N 37°49' E 008°36'1716.6
2016-Apr-28 03:32N 37°46' E 008°15'1716.6
2016-Apr-28 02:30N 37°43' E 007°53'17217.2
2016-Apr-27 16:30N 37°14' E 004°20'4017.8
2016-Apr-27 14:16N 37°08' E 003°30'3718.1
2016-Apr-27 12:12N 37°01' E 002°44'1218.2
2016-Apr-27 11:33N 36°60' E 002°30'2318.1
2016-Apr-27 10:17N 36°56' E 002°01'1317.6
2016-Apr-27 09:33N 36°54' E 001°45'3718.7
2016-Apr-27 07:33N 36°48' E 000°59'1918.6
2016-Apr-27 06:33N 36°44' E 000°36'1818.3
2016-Apr-27 05:33N 36°41' E 000°14'3918.3
2016-Apr-27 03:24N 36°35' W 000°35'1818.1
2016-Apr-27 02:23N 36°32' W 000°57'1618.3
2016-Apr-27 01:32N 36°29' W 001°16'19218.4
2016-Apr-26 15:05N 35°60' W 005°12'1019.6
2016-Apr-26 14:33N 35°58' W 005°25'22217.8
2016-Apr-26 02:05N 35°50' W 009°59'2917.9
2016-Apr-26 00:28N 35°49' W 010°35'1617.8
2016-Apr-25 23:33N 35°48' W 010°55'2418.0
2016-Apr-25 22:14N 35°47' W 011°24'1218.0
2016-Apr-25 21:33N 35°46' W 011°39'1917.8
2016-Apr-25 20:31N 35°45' W 012°02'1717.5
2016-Apr-25 19:33N 35°44' W 012°22'1717.1
2016-Apr-25 18:33N 35°43' W 012°44'2617.5
2016-Apr-25 17:05N 35°41' W 013°15'1017.8
2016-Apr-25 16:32N 35°40' W 013°27'1917.9
2016-Apr-25 15:28N 35°39' W 013°50'  
Track history (hours):
 
Tides and Currents Weather Stations Pressure Air Temp Water Temp Dewpoint Dewpoint Depression Visibility Wind Speed Wind Dir Waves Ship Positions

MSC Poh Lin

Last reported at 2016-Apr-30 23:31 UTC. Time now 2016-May-01 00:26 UTC.
Position N 39°58' E 013°53'.

Length 294 m; draft 9.6 m.

Type: Ship (hazmat cat A). MMSI: 357405000.

Date/timePositionNaut miles runAvg speedWind from/ knotsBaromVisibWave heightAir tempDewpointWater temp
2016-Apr-30 23:31N 39°58' E 013°53'102 7.1
2016-Apr-30 09:08N 38°47' E 015°28'5 7.6
2016-Apr-30 08:29N 38°44' E 015°32'9 7.9
2016-Apr-30 07:24N 38°38' E 015°40'7 7.7
2016-Apr-30 06:33N 38°33' E 015°46'7 7.3
2016-Apr-30 05:33N 38°28' E 015°52'2 1.6
2016-Apr-30 04:33N 38°27' E 015°54'0 0.0
2016-Apr-30 03:33N 38°27' E 015°54'0 0.0
2016-Apr-30 02:33N 38°27' E 015°54'0 0.0
2016-Apr-30 01:34N 38°27' E 015°54'0 0.0
2016-Apr-30 00:33N 38°27' E 015°54'0 0.0
2016-Apr-29 23:33N 38°27' E 015°54'0 0.0
2016-Apr-29 22:31N 38°27' E 015°54'0 0.0
2016-Apr-29 21:33N 38°27' E 015°54'0 0.0
2016-Apr-29 20:31N 38°27' E 015°54'0 0.0
2016-Apr-29 19:28N 38°27' E 015°54'0 0.0
2016-Apr-29 18:31N 38°27' E 015°54'0 0.0
2016-Apr-29 17:31N 38°27' E 015°54'0 0.0
2016-Apr-29 16:31N 38°27' E 015°54'0 0.0
2016-Apr-29 15:31N 38°27' E 015°54'0 0.0
2016-Apr-29 14:31N 38°27' E 015°54'0 0.0
2016-Apr-29 13:31N 38°27' E 015°54'0 0.0
2016-Apr-29 12:19N 38°27' E 015°54'0 0.0
2016-Apr-29 11:25N 38°27' E 015°54'0 0.0
2016-Apr-29 10:28N 38°27' E 015°54'0 0.0
2016-Apr-29 09:28N 38°27' E 015°54'0 0.0
2016-Apr-29 08:33N 38°27' E 015°54'0 0.0
2016-Apr-29 07:27N 38°27' E 015°54'0 0.0
2016-Apr-29 06:33N 38°27' E 015°54'0 0.0
2016-Apr-29 05:33N 38°27' E 015°54'0 0.0
2016-Apr-29 04:33N 38°27' E 015°54'1 1.1
2016-Apr-29 03:33N 38°27' E 015°53'6 5.6
2016-Apr-29 02:33N 38°26' E 015°46'1111.3
2016-Apr-29 01:33N 38°24' E 015°32'1312.6
2016-Apr-29 00:33N 38°21' E 015°16'1414.1
2016-Apr-28 23:33N 38°19' E 014°58'1514.3
2016-Apr-28 22:31N 38°20' E 014°40'1614.3
2016-Apr-28 21:24N 38°21' E 014°19'1414.2
2016-Apr-28 20:26N 38°22' E 014°02'1214.0
2016-Apr-28 19:33N 38°23' E 013°46'1514.8
2016-Apr-28 18:33N 38°24' E 013°27'1615.9
2016-Apr-28 17:33N 38°25' E 013°07'1616.0
2016-Apr-28 16:33N 38°22' E 012°47'1616.0
2016-Apr-28 15:33N 38°19' E 012°27'1816.5
2016-Apr-28 14:29N 38°17' E 012°04'13616.8
2016-Apr-28 06:25N 37°54' E 009°14'1416.4
2016-Apr-28 05:33N 37°52' E 008°57'1716.7
2016-Apr-28 04:33N 37°49' E 008°36'1716.6
2016-Apr-28 03:32N 37°46' E 008°15'1716.6
2016-Apr-28 02:30N 37°43' E 007°53'17217.2
2016-Apr-27 16:30N 37°14' E 004°20'4017.8
2016-Apr-27 14:16N 37°08' E 003°30'3718.1
2016-Apr-27 12:12N 37°01' E 002°44'1218.2
2016-Apr-27 11:33N 36°60' E 002°30'2318.1
2016-Apr-27 10:17N 36°56' E 002°01'1317.6
2016-Apr-27 09:33N 36°54' E 001°45'3718.7
2016-Apr-27 07:33N 36°48' E 000°59'1918.6
2016-Apr-27 06:33N 36°44' E 000°36'1818.3
2016-Apr-27 05:33N 36°41' E 000°14'3918.3
2016-Apr-27 03:24N 36°35' W 000°35'1818.1
2016-Apr-27 02:23N 36°32' W 000°57'1618.3
2016-Apr-27 01:32N 36°29' W 001°16'19218.4
2016-Apr-26 15:05N 35°60' W 005°12'1019.6
2016-Apr-26 14:33N 35°58' W 005°25'22217.8
2016-Apr-26 02:05N 35°50' W 009°59'2917.9
2016-Apr-26 00:28N 35°49' W 010°35'1617.8
2016-Apr-25 23:33N 35°48' W 010°55'2418.0
2016-Apr-25 22:14N 35°47' W 011°24'1218.0
2016-Apr-25 21:33N 35°46' W 011°39'1917.8
2016-Apr-25 20:31N 35°45' W 012°02'1717.5
2016-Apr-25 19:33N 35°44' W 012°22'1717.1
2016-Apr-25 18:33N 35°43' W 012°44'2617.5
2016-Apr-25 17:05N 35°41' W 013°15'1017.8
2016-Apr-25 16:32N 35°40' W 013°27'1917.9
2016-Apr-25 15:28N 35°39' W 013°50'  

Dump ship's entire track history